Language: 


Des rapports , des résumés tant et plus, au choix de chacun....


Données statistiques de la station
Quotidien Rapport Janvier 16, 2017 Unités:  Métrique    Anglais   les deux
« Précédent Jour
Suivant Jour »
Quotidien Hebdomadaire Mensuel Annuel Actuel
  Haut: Bas: Moyen:
Température: 3.9 °C -0.5 °C 1.5 °C
Pt de rosée: 3.5 °C -0.8 °C 1.2 °C
Humidité: 98 % 0 % 98 %
Vitesse du vent: 6.9 km/h 0.0 km/h 1.5 km/h
Rafales: 11.1 km/h - -
Vent:- - SE
Pression: 1032.1 hPa 0.0 hPa -
Précipitation: 0.3 mm    
Historical Graphs
 
 
Données statistiques pour Janvier 16, 2017
Heure Température Point de rosée Pression Vent Vitesse du vent Refales Humidité Pluie (taux horaire)
00:03 1.2 °C 0.9 °C 1021.9 hPa Calm     98 % 0.0 mm
00:08 1.1 °C 0.8 °C 1022.9 hPa Calm     98 % 0.0 mm
00:13 1.1 °C 0.8 °C 1022.9 hPa SW 2.1 km/h 3.5 km/h 98 % 0.0 mm
00:18 1.1 °C 0.8 °C 1022.9 hPa Calm   3.5 km/h 98 % 0.0 mm
00:23 1.1 °C 0.8 °C 1022.9 hPa Calm   1.8 km/h 98 % 0.0 mm
00:28 1.1 °C 0.8 °C 1022.9 hPa Calm     98 % 0.0 mm
00:33 1.1 °C 0.8 °C 1022.9 hPa Calm     98 % 0.0 mm
00:38 1.1 °C 0.8 °C 1022.9 hPa SW 1.8 km/h 1.8 km/h 98 % 0.0 mm
00:43 1.1 °C 0.8 °C 1022.9 hPa Calm   1.8 km/h 98 % 0.0 mm
00:48 1.0 °C 0.7 °C 1022.9 hPa Calm   1.8 km/h 98 % 0.0 mm
00:53 1.0 °C 0.7 °C 1022.9 hPa Calm     98 % 0.0 mm
00:58 1.0 °C 0.7 °C 1022.9 hPa Calm     98 % 0.0 mm
01:03 1.0 °C 0.7 °C 1022.9 hPa Calm     98 % 0.0 mm
01:08 1.0 °C 0.7 °C 1022.9 hPa Calm     98 % 0.0 mm
01:13 1.0 °C 0.7 °C 1022.9 hPa Calm   1.8 km/h 98 % 0.0 mm
01:18 1.0 °C 0.7 °C 1022.9 hPa Calm   1.8 km/h 98 % 0.0 mm
01:20 0.9 °C 0.6 °C 1022.9 hPa Calm   1.8 km/h 98 % 0.0 mm
01:25 0.9 °C 0.6 °C 1022.9 hPa Calm     98 % 0.0 mm
01:30 0.9 °C 0.6 °C 1022.9 hPa Calm     98 % 0.0 mm
01:35 0.8 °C 0.5 °C 1022.9 hPa Calm     98 % 0.0 mm
01:40 0.8 °C 0.5 °C 1021.9 hPa Calm     98 % 0.0 mm
01:45 0.8 °C 0.5 °C 1021.9 hPa Calm     98 % 0.0 mm
01:50 0.8 °C 0.5 °C 1021.9 hPa Calm     98 % 0.0 mm
01:55 0.8 °C 0.5 °C 1022.9 hPa Calm     98 % 0.0 mm
02:02 0.0 °C 0.4 °C 0.0 hPa Calm     0 % 0.0 mm
02:07 0.7 °C 0.4 °C 1021.9 hPa Calm     98 % 0.0 mm
02:12 0.6 °C 0.3 °C 1021.9 hPa Calm   4.3 km/h 98 % 0.0 mm
02:17 0.6 °C 0.3 °C 1021.9 hPa Calm   4.3 km/h 98 % 0.0 mm
02:22 0.6 °C 0.3 °C 1021.9 hPa NE 3.5 km/h 5.0 km/h 98 % 0.0 mm
02:27 0.6 °C 0.3 °C 1021.9 hPa NNE 3.2 km/h 5.8 km/h 98 % 0.0 mm
02:32 0.6 °C 0.3 °C 1021.9 hPa Calm   5.8 km/h 98 % 0.0 mm
02:37 0.6 °C 0.3 °C 1022.9 hPa Calm   4.7 km/h 98 % 0.0 mm
02:42 0.5 °C 0.2 °C 1022.9 hPa Calm   4.7 km/h 98 % 0.0 mm
02:47 0.5 °C 0.2 °C 1022.9 hPa Calm   5.0 km/h 98 % 0.0 mm
02:52 0.6 °C 0.3 °C 1023.9 hPa NE 2.1 km/h 5.0 km/h 98 % 0.0 mm
02:57 0.6 °C 0.3 °C 1023.9 hPa Calm   4.3 km/h 98 % 0.0 mm
03:02 0.6 °C 0.3 °C 1023.9 hPa Calm   2.6 km/h 98 % 0.0 mm
03:07 0.6 °C 0.3 °C 1022.9 hPa Calm   1.8 km/h 98 % 0.0 mm
03:12 0.6 °C 0.3 °C 1022.9 hPa Calm     98 % 0.0 mm
03:17 0.6 °C 0.3 °C 1022.9 hPa Calm   1.4 km/h 98 % 0.0 mm
03:22 0.6 °C 0.3 °C 1023.9 hPa Calm   1.4 km/h 98 % 0.0 mm
03:27 0.7 °C 0.4 °C 1023.9 hPa Calm   1.8 km/h 98 % 0.0 mm
03:32 0.7 °C 0.4 °C 1023.9 hPa Calm   5.0 km/h 98 % 0.0 mm
03:37 0.7 °C 0.4 °C 1022.9 hPa NE 4.0 km/h 5.0 km/h 98 % 0.0 mm
03:42 0.8 °C 0.5 °C 1022.9 hPa Calm   5.5 km/h 98 % 0.0 mm
03:47 0.9 °C 0.6 °C 1022.9 hPa Calm   5.5 km/h 98 % 0.0 mm
03:52 0.9 °C 0.6 °C 1022.9 hPa NE 5.5 km/h 5.5 km/h 98 % 0.3 mm
03:57 0.9 °C 0.6 °C 1022.9 hPa Calm   5.5 km/h 98 % 0.3 mm
04:02 1.0 °C 0.7 °C 1022.9 hPa Calm   4.7 km/h 98 % 0.3 mm
04:07 1.0 °C 0.7 °C 1022.9 hPa Calm     98 % 0.3 mm
04:12 1.0 °C 0.7 °C 1022.9 hPa Calm     98 % 0.3 mm
04:17 1.0 °C 0.7 °C 1022.9 hPa Calm   4.3 km/h 98 % 0.3 mm
04:22 1.0 °C 0.7 °C 1023.9 hPa Calm   4.3 km/h 98 % 0.3 mm
04:27 1.0 °C 0.7 °C 1023.9 hPa Calm     98 % 0.3 mm
04:32 1.0 °C 0.7 °C 1023.9 hPa Calm     98 % 0.3 mm
04:37 1.0 °C 0.7 °C 1023.9 hPa Calm     98 % 0.3 mm
04:42 1.0 °C 0.7 °C 1023.9 hPa Calm     98 % 0.3 mm
04:47 1.0 °C 0.7 °C 1023.9 hPa Calm     98 % 0.3 mm
04:52 1.0 °C 0.7 °C 1023.9 hPa Calm     98 % 0.0 mm
04:57 1.0 °C 0.7 °C 1023.9 hPa Calm     98 % 0.0 mm
05:02 1.0 °C 0.7 °C 1023.9 hPa Calm     98 % 0.0 mm
05:07 1.1 °C 0.8 °C 1023.9 hPa North 2.6 km/h 4.7 km/h 98 % 0.0 mm
05:12 1.1 °C 0.8 °C 1023.9 hPa Calm   4.7 km/h 98 % 0.0 mm
05:17 1.1 °C 0.8 °C 1023.9 hPa North 5.5 km/h 6.1 km/h 98 % 0.0 mm
05:22 1.1 °C 0.8 °C 1023.9 hPa North 6.4 km/h 6.4 km/h 98 % 0.0 mm
05:27 1.1 °C 0.8 °C 1023.9 hPa North 5.5 km/h 6.4 km/h 98 % 0.0 mm
05:32 1.1 °C 0.8 °C 1023.9 hPa NNE 2.6 km/h 7.6 km/h 98 % 0.0 mm
05:37 1.1 °C 0.8 °C 1024.9 hPa NNE 4.0 km/h 7.6 km/h 98 % 0.0 mm
05:42 1.0 °C 0.7 °C 1024.9 hPa Calm   9.0 km/h 98 % 0.0 mm
05:47 1.0 °C 0.7 °C 1024.9 hPa North 2.6 km/h 9.0 km/h 98 % 0.0 mm
05:53 1.0 °C 0.7 °C 1023.9 hPa Calm   5.8 km/h 98 % 0.0 mm
05:58 1.0 °C 0.7 °C 1023.9 hPa Calm   4.0 km/h 98 % 0.0 mm
06:03 1.0 °C 0.7 °C 1023.9 hPa Calm   5.0 km/h 98 % 0.0 mm
06:08 1.0 °C 0.7 °C 1023.9 hPa Calm   5.0 km/h 98 % 0.0 mm
06:13 1.0 °C 0.7 °C 1023.9 hPa Calm     98 % 0.0 mm
06:18 0.9 °C 0.6 °C 1023.9 hPa Calm   5.5 km/h 98 % 0.0 mm
06:23 0.9 °C 0.6 °C 1024.9 hPa Calm   5.5 km/h 98 % 0.0 mm
06:28 0.9 °C 0.6 °C 1024.9 hPa Calm   5.5 km/h 98 % 0.0 mm
06:33 0.9 °C 0.6 °C 1024.9 hPa Calm   5.5 km/h 98 % 0.0 mm
06:38 0.9 °C 0.6 °C 1023.9 hPa Calm   5.5 km/h 98 % 0.0 mm
06:43 0.8 °C 0.5 °C 1023.9 hPa Calm     98 % 0.0 mm
06:48 0.8 °C 0.5 °C 1023.9 hPa Calm     98 % 0.0 mm
06:53 0.8 °C 0.5 °C 1024.9 hPa Calm     98 % 0.0 mm
06:58 0.8 °C 0.5 °C 1024.9 hPa Calm     98 % 0.0 mm
07:03 0.8 °C 0.5 °C 1024.9 hPa Calm     98 % 0.0 mm
07:08 0.8 °C 0.5 °C 1024.9 hPa Calm     98 % 0.0 mm
07:13 0.8 °C 0.5 °C 1024.9 hPa Calm     98 % 0.0 mm
07:18 0.8 °C 0.5 °C 1024.9 hPa Calm     98 % 0.0 mm
07:23 0.8 °C 0.5 °C 1024.9 hPa Calm   4.0 km/h 98 % 0.0 mm
07:28 0.8 °C 0.5 °C 1024.9 hPa West 4.3 km/h 5.0 km/h 98 % 0.0 mm
07:33 0.8 °C 0.5 °C 1024.9 hPa WSW 4.7 km/h 5.5 km/h 98 % 0.0 mm
07:38 0.8 °C 0.5 °C 1024.9 hPa Calm   5.5 km/h 98 % 0.0 mm
07:43 0.8 °C 0.5 °C 1024.9 hPa West 2.1 km/h 5.8 km/h 98 % 0.0 mm
07:48 0.8 °C 0.5 °C 1024.9 hPa WNW 4.0 km/h 5.8 km/h 98 % 0.0 mm
07:53 0.8 °C 0.5 °C 1024.9 hPa Calm   6.9 km/h 98 % 0.0 mm
07:58 0.8 °C 0.5 °C 1024.9 hPa WNW 3.2 km/h 6.9 km/h 98 % 0.0 mm
08:03 0.9 °C 0.6 °C 1024.9 hPa Calm   6.9 km/h 98 % 0.0 mm
08:08 0.9 °C 0.6 °C 1024.9 hPa West 2.1 km/h 6.4 km/h 98 % 0.0 mm
08:13 0.9 °C 0.6 °C 1024.9 hPa West 1.4 km/h 6.9 km/h 98 % 0.0 mm
08:18 1.0 °C 0.7 °C 1024.9 hPa Calm   6.9 km/h 98 % 0.0 mm
08:23 1.0 °C 0.7 °C 1024.9 hPa Calm   5.5 km/h 98 % 0.0 mm
08:28 1.0 °C 0.7 °C 1024.9 hPa Calm   5.5 km/h 98 % 0.0 mm
08:33 1.0 °C 0.7 °C 1024.9 hPa Calm   4.0 km/h 98 % 0.0 mm
08:38 1.1 °C 0.8 °C 1024.9 hPa Calm     98 % 0.0 mm
08:43 1.1 °C 0.8 °C 1024.9 hPa Calm   1.4 km/h 98 % 0.0 mm
08:48 1.1 °C 0.8 °C 1024.9 hPa Calm   4.0 km/h 98 % 0.0 mm
08:53 1.1 °C 0.8 °C 1024.9 hPa Calm   4.3 km/h 98 % 0.0 mm
08:58 1.1 °C 0.8 °C 1024.9 hPa Calm   4.3 km/h 98 % 0.0 mm
09:03 1.2 °C 0.9 °C 1024.9 hPa Calm     98 % 0.0 mm
09:08 1.2 °C 0.9 °C 1024.9 hPa Calm   2.6 km/h 98 % 0.0 mm
09:13 1.2 °C 0.9 °C 1024.9 hPa Calm   2.6 km/h 98 % 0.0 mm
09:18 1.2 °C 0.9 °C 1024.9 hPa Calm     98 % 0.0 mm
09:23 1.3 °C 1.0 °C 1024.9 hPa Calm   1.4 km/h 98 % 0.0 mm
09:28 1.3 °C 1.0 °C 1024.9 hPa Calm   1.4 km/h 98 % 0.0 mm
09:33 1.3 °C 1.0 °C 1024.9 hPa Calm     98 % 0.0 mm
09:38 1.3 °C 1.0 °C 1024.9 hPa Calm     98 % 0.0 mm
09:43 1.3 °C 1.0 °C 1024.9 hPa Calm   2.1 km/h 98 % 0.0 mm
09:48 1.4 °C 1.1 °C 1024.9 hPa Calm   2.1 km/h 98 % 0.0 mm
09:53 1.4 °C 1.1 °C 1024.9 hPa Calm   4.0 km/h 98 % 0.0 mm
09:58 1.4 °C 1.1 °C 1024.9 hPa Calm   4.0 km/h 98 % 0.0 mm
10:03 1.4 °C 1.1 °C 1024.9 hPa Calm     98 % 0.0 mm
10:08 1.4 °C 1.1 °C 1026.0 hPa SW 1.8 km/h 4.0 km/h 98 % 0.0 mm
10:13 1.4 °C 1.2 °C 1026.0 hPa WNW 2.1 km/h 5.5 km/h 98 % 0.0 mm
10:18 1.4 °C 1.2 °C 1026.0 hPa Calm   6.1 km/h 98 % 0.0 mm
10:23 1.6 °C 1.3 °C 1026.0 hPa Calm   6.1 km/h 98 % 0.0 mm
10:28 1.6 °C 1.3 °C 1026.0 hPa NW 2.1 km/h 5.5 km/h 98 % 0.0 mm
10:33 1.7 °C 1.4 °C 1026.0 hPa West 5.0 km/h 5.5 km/h 98 % 0.0 mm
10:38 1.7 °C 1.4 °C 1026.0 hPa Calm   5.5 km/h 98 % 0.0 mm
10:43 1.8 °C 1.5 °C 1026.0 hPa Calm   5.0 km/h 98 % 0.0 mm
10:48 1.9 °C 1.6 °C 1026.0 hPa Calm   4.3 km/h 98 % 0.0 mm
10:53 1.9 °C 1.6 °C 1026.0 hPa Calm   4.3 km/h 98 % 0.0 mm
10:58 1.9 °C 1.7 °C 1026.0 hPa Calm   1.4 km/h 98 % 0.0 mm
11:03 2.1 °C 1.8 °C 1026.0 hPa West 3.2 km/h 5.8 km/h 98 % 0.0 mm
11:08 2.1 °C 1.8 °C 1026.0 hPa WSW 2.1 km/h 6.4 km/h 98 % 0.0 mm
11:13 2.1 °C 1.8 °C 1026.0 hPa Calm   6.4 km/h 98 % 0.0 mm
11:18 2.1 °C 1.8 °C 1026.0 hPa WNW 1.4 km/h 1.4 km/h 98 % 0.0 mm
11:23 1.9 °C 1.7 °C 1026.0 hPa Calm   4.0 km/h 98 % 0.0 mm
11:28 2.1 °C 1.8 °C 1026.0 hPa Calm   4.3 km/h 98 % 0.0 mm
11:33 2.1 °C 1.8 °C 1026.0 hPa Calm   4.3 km/h 98 % 0.0 mm
11:38 2.1 °C 1.8 °C 1026.0 hPa Calm   4.0 km/h 98 % 0.0 mm
11:43 2.1 °C 1.8 °C 1026.0 hPa Calm   4.3 km/h 98 % 0.0 mm
11:48 2.2 °C 1.9 °C 1026.0 hPa Calm   4.3 km/h 98 % 0.0 mm
11:53 2.3 °C 1.9 °C 1026.0 hPa Calm   1.8 km/h 98 % 0.0 mm
11:58 2.3 °C 1.9 °C 1026.0 hPa Calm   1.4 km/h 98 % 0.0 mm
12:03 2.2 °C 1.9 °C 1026.0 hPa Calm   1.4 km/h 98 % 0.0 mm
12:08 2.3 °C 1.9 °C 1026.0 hPa Calm   4.0 km/h 98 % 0.0 mm
12:13 2.3 °C 1.9 °C 1026.0 hPa Calm   4.0 km/h 98 % 0.0 mm
12:18 2.3 °C 1.9 °C 1026.0 hPa Calm   1.8 km/h 98 % 0.0 mm
12:23 2.3 °C 2.1 °C 1026.0 hPa West 5.8 km/h 6.9 km/h 98 % 0.0 mm
12:28 2.3 °C 2.1 °C 1026.0 hPa West 2.1 km/h 7.2 km/h 98 % 0.0 mm
12:33 2.6 °C 2.3 °C 1026.0 hPa West 4.0 km/h 7.2 km/h 98 % 0.0 mm
12:38 2.6 °C 2.3 °C 1026.0 hPa WNW 3.5 km/h 5.8 km/h 98 % 0.0 mm
12:43 2.7 °C 2.4 °C 1026.0 hPa Calm   5.5 km/h 98 % 0.0 mm
12:48 2.7 °C 2.4 °C 1026.0 hPa WNW 3.5 km/h 6.9 km/h 98 % 0.0 mm
12:53 2.7 °C 2.4 °C 1026.0 hPa WNW 4.3 km/h 7.2 km/h 98 % 0.0 mm
12:58 2.7 °C 2.4 °C 1026.0 hPa WNW 3.5 km/h 7.2 km/h 98 % 0.0 mm
13:03 2.7 °C 2.4 °C 1026.0 hPa Calm   6.1 km/h 98 % 0.0 mm
13:08 2.7 °C 2.4 °C 1026.0 hPa WNW 4.3 km/h 6.9 km/h 98 % 0.0 mm
13:13 2.8 °C 2.6 °C 1026.0 hPa Calm   6.9 km/h 98 % 0.0 mm
13:18 2.9 °C 2.7 °C 1026.0 hPa Calm   4.7 km/h 98 % 0.0 mm
13:23 3.1 °C 2.8 °C 1026.0 hPa Calm   3.2 km/h 98 % 0.0 mm
13:28 3.1 °C 2.8 °C 1026.0 hPa West 2.1 km/h 3.2 km/h 98 % 0.0 mm
13:33 3.2 °C 2.9 °C 1026.0 hPa Calm   2.1 km/h 98 % 0.0 mm
13:39 3.1 °C 2.8 °C 1027.0 hPa Calm     98 % 0.0 mm
13:44 3.1 °C 2.8 °C 1027.0 hPa Calm   4.3 km/h 98 % 0.0 mm
13:49 3.2 °C 2.9 °C 1027.0 hPa Calm   4.3 km/h 98 % 0.0 mm
13:54 3.2 °C 2.9 °C 1027.0 hPa Calm     98 % 0.0 mm
13:59 3.2 °C 2.9 °C 1027.0 hPa Calm   4.0 km/h 98 % 0.0 mm
14:04 3.3 °C 3.1 °C 1027.0 hPa Calm   4.0 km/h 98 % 0.0 mm
14:09 3.4 °C 3.2 °C 1026.0 hPa WNW 1.8 km/h 4.0 km/h 98 % 0.0 mm
14:14 3.6 °C 3.2 °C 1026.0 hPa Calm   4.0 km/h 98 % 0.0 mm
14:24 3.6 °C 3.3 °C 1027.0 hPa Calm     98 % 0.0 mm
14:29 3.6 °C 3.3 °C 1027.0 hPa North 4.3 km/h 4.3 km/h 98 % 0.0 mm
14:34 3.7 °C 3.4 °C 1027.0 hPa North 1.8 km/h 4.3 km/h 98 % 0.0 mm
14:39 3.7 °C 3.4 °C 1026.0 hPa Calm   4.3 km/h 98 % 0.0 mm
14:44 3.7 °C 3.4 °C 1026.0 hPa Calm   4.7 km/h 98 % 0.0 mm
14:49 3.7 °C 3.4 °C 1026.0 hPa Calm   4.7 km/h 98 % 0.0 mm
14:54 3.7 °C 3.3 °C 1027.0 hPa North 4.3 km/h 6.4 km/h 97 % 0.0 mm
14:59 3.7 °C 3.3 °C 1027.0 hPa Calm   6.4 km/h 97 % 0.0 mm
15:04 3.7 °C 3.3 °C 1027.0 hPa North 6.1 km/h 6.1 km/h 97 % 0.0 mm
15:09 3.7 °C 3.3 °C 1027.0 hPa Calm   6.1 km/h 97 % 0.0 mm
15:14 3.7 °C 3.3 °C 1027.0 hPa NNE 5.5 km/h 5.5 km/h 97 % 0.0 mm
15:19 3.7 °C 3.3 °C 1027.0 hPa Calm   5.5 km/h 97 % 0.0 mm
15:24 3.7 °C 3.3 °C 1027.0 hPa NE 1.8 km/h 5.5 km/h 97 % 0.0 mm
15:29 3.8 °C 3.4 °C 1027.0 hPa Calm   4.3 km/h 97 % 0.0 mm
15:34 3.9 °C 3.5 °C 1027.0 hPa Calm   4.3 km/h 97 % 0.0 mm
15:39 3.9 °C 3.5 °C 1027.0 hPa North 6.4 km/h 6.4 km/h 97 % 0.0 mm
15:44 3.9 °C 3.5 °C 1027.0 hPa Calm   6.4 km/h 97 % 0.0 mm
15:49 3.9 °C 3.5 °C 1027.0 hPa NNE 4.3 km/h 5.0 km/h 97 % 0.0 mm
15:54 3.9 °C 3.5 °C 1027.0 hPa NE 1.4 km/h 5.5 km/h 97 % 0.0 mm
15:59 3.8 °C 3.4 °C 1027.0 hPa Calm   5.5 km/h 97 % 0.0 mm
16:04 3.8 °C 3.4 °C 1027.0 hPa NNE 4.7 km/h 5.0 km/h 97 % 0.0 mm
16:09 3.8 °C 3.4 °C 1027.0 hPa NE 6.1 km/h 7.2 km/h 97 % 0.0 mm
16:14 3.8 °C 3.4 °C 1027.0 hPa North 5.5 km/h 7.6 km/h 97 % 0.0 mm
16:19 3.8 °C 3.4 °C 1027.0 hPa NNE 4.0 km/h 7.6 km/h 97 % 0.0 mm
16:24 3.8 °C 3.4 °C 1026.0 hPa NE 4.3 km/h 6.4 km/h 97 % 0.0 mm
16:29 3.8 °C 3.4 °C 1026.0 hPa NNE 5.5 km/h 6.4 km/h 97 % 0.0 mm
16:34 3.7 °C 3.3 °C 1026.0 hPa NE 5.5 km/h 6.4 km/h 97 % 0.0 mm
16:39 3.7 °C 3.3 °C 1027.0 hPa NNE 6.1 km/h 7.9 km/h 97 % 0.0 mm
16:44 3.7 °C 3.3 °C 1027.0 hPa NE 5.8 km/h 7.9 km/h 97 % 0.0 mm
16:49 3.7 °C 3.3 °C 1027.0 hPa Calm   6.1 km/h 97 % 0.0 mm
16:54 3.7 °C 3.3 °C 1027.0 hPa Calm   5.5 km/h 97 % 0.0 mm
17:00 3.6 °C 3.2 °C 1027.0 hPa East 1.4 km/h 5.0 km/h 97 % 0.0 mm
17:06 3.6 °C 3.2 °C 1027.0 hPa East 1.8 km/h 4.3 km/h 97 % 0.0 mm
17:15 3.6 °C 3.1 °C 1027.0 hPa East 4.3 km/h 5.5 km/h 97 % 0.0 mm
17:19 3.4 °C 3.0 °C 1027.0 hPa SE 2.6 km/h 5.0 km/h 97 % 0.0 mm
17:31 3.1 °C 2.7 °C 1027.0 hPa Calm   2.1 km/h 97 % 0.0 mm
17:35 3.1 °C 2.6 °C 1027.0 hPa Calm     97 % 0.0 mm
17:42 2.9 °C 2.5 °C 1026.0 hPa Calm     97 % 0.0 mm
17:44 2.8 °C 2.4 °C 1026.0 hPa Calm     97 % 0.0 mm
17:47 2.7 °C 2.3 °C 1026.0 hPa Calm     97 % 0.0 mm
17:48 2.7 °C 2.3 °C 1026.0 hPa Calm     97 % 0.0 mm
17:56 2.7 °C 2.2 °C 1027.0 hPa Calm     97 % 0.0 mm
17:58 2.7 °C 2.2 °C 1027.0 hPa Calm     97 % 0.0 mm
18:20 1.9 °C 1.6 °C 1027.0 hPa Calm     97 % 0.0 mm
18:21 1.9 °C 1.4 °C 1027.0 hPa Calm     97 % 0.0 mm
18:32 1.6 °C 1.2 °C 1028.0 hPa Calm     97 % 0.0 mm
18:37 1.4 °C 0.9 °C 1028.0 hPa Calm     97 % 0.0 mm
18:45 1.1 °C 0.7 °C 1028.0 hPa Calm     97 % 0.0 mm
18:51 1.0 °C 0.6 °C 1028.0 hPa Calm     97 % 0.0 mm
18:56 1.0 °C 0.6 °C 1028.0 hPa Calm     97 % 0.0 mm
18:57 1.0 °C 0.7 °C 1028.0 hPa Calm     98 % 0.0 mm
19:01 1.1 °C 0.8 °C 1028.0 hPa Calm     98 % 0.0 mm
19:10 1.0 °C 0.7 °C 1028.0 hPa Calm     98 % 0.0 mm
19:14 0.9 °C 0.6 °C 1028.0 hPa Calm     98 % 0.0 mm
19:19 0.8 °C 0.5 °C 1028.0 hPa Calm     98 % 0.0 mm
19:30 0.7 °C 0.4 °C 1029.0 hPa Calm     98 % 0.0 mm
19:36 0.6 °C 0.3 °C 1029.0 hPa Calm     98 % 0.0 mm
19:38 0.6 °C 0.3 °C 1029.0 hPa Calm     98 % 0.0 mm
19:42 0.6 °C 0.3 °C 1029.0 hPa Calm     98 % 0.0 mm
19:47 0.5 °C 0.2 °C 1029.0 hPa Calm     98 % 0.0 mm
19:50 0.5 °C 0.2 °C 1029.0 hPa Calm     98 % 0.0 mm
19:58 0.6 °C 0.3 °C 1029.0 hPa Calm     98 % 0.0 mm
20:08 0.7 °C 0.4 °C 1029.0 hPa Calm     98 % 0.0 mm
20:19 1.0 °C 0.7 °C 1029.0 hPa Calm   3.2 km/h 98 % 0.0 mm
20:20 1.0 °C 0.7 °C 1029.0 hPa Calm   3.2 km/h 98 % 0.0 mm
21:06 1.1 °C 0.8 °C 1029.0 hPa ESE 4.0 km/h 11.1 km/h 98 % 0.0 mm
21:07 1.1 °C 0.8 °C 1030.0 hPa ESE 5.5 km/h 10.1 km/h 98 % 0.0 mm
21:13 1.0 °C 0.7 °C 1030.0 hPa NE 6.1 km/h 10.1 km/h 98 % 0.0 mm
21:16 1.0 °C 0.7 °C 1030.0 hPa East 6.9 km/h 10.1 km/h 98 % 0.0 mm
21:19 0.9 °C 0.6 °C 1030.0 hPa ENE 5.0 km/h 9.7 km/h 98 % 0.0 mm
21:25 0.8 °C 0.5 °C 1030.0 hPa East 4.3 km/h 6.9 km/h 98 % 0.0 mm
21:26 0.7 °C 0.4 °C 1030.0 hPa ENE 5.5 km/h 6.4 km/h 98 % 0.0 mm
21:34 0.6 °C 0.3 °C 1030.0 hPa East 1.8 km/h 6.4 km/h 98 % 0.0 mm
21:42 0.4 °C 0.1 °C 1030.0 hPa NE 5.0 km/h 6.1 km/h 98 % 0.0 mm
21:47 0.3 °C 0.0 °C 1030.0 hPa NE 5.8 km/h 6.1 km/h 98 % 0.0 mm
21:49 0.3 °C 0.0 °C 1030.0 hPa ENE 6.1 km/h 6.4 km/h 98 % 0.0 mm
21:54 0.3 °C 0.0 °C 1030.0 hPa ENE 5.0 km/h 6.4 km/h 98 % 0.0 mm
21:56 0.2 °C -0.1 °C 1030.0 hPa ENE 4.7 km/h 6.4 km/h 98 % 0.0 mm
21:57 0.2 °C -0.1 °C 1030.0 hPa ENE 4.3 km/h 6.4 km/h 98 % 0.0 mm
22:03 0.1 °C -0.2 °C 1030.0 hPa ENE 5.0 km/h 5.8 km/h 98 % 0.0 mm
22:08 0.0 °C -0.3 °C 1031.0 hPa ENE 4.0 km/h 5.8 km/h 98 % 0.0 mm
22:09 0.0 °C -0.3 °C 1031.0 hPa ENE 4.0 km/h 5.8 km/h 98 % 0.0 mm
22:13 -0.1 °C -0.4 °C 1031.0 hPa NE 5.5 km/h 5.8 km/h 98 % 0.0 mm
22:18 -0.1 °C -0.4 °C 1031.0 hPa NE 4.7 km/h 6.1 km/h 98 % 0.0 mm
22:21 -0.1 °C -0.4 °C 1031.0 hPa NE 5.0 km/h 6.1 km/h 98 % 0.0 mm
22:28 -0.3 °C -0.6 °C 1031.0 hPa NE 4.3 km/h 5.8 km/h 98 % 0.0 mm
22:29 -0.3 °C -0.6 °C 1031.0 hPa NE 4.7 km/h 5.0 km/h 98 % 0.0 mm
22:30 -0.3 °C -0.6 °C 1031.0 hPa NE 4.3 km/h 5.0 km/h 98 % 0.0 mm
22:32 -0.3 °C -0.6 °C 1031.0 hPa NE 4.0 km/h 5.0 km/h 98 % 0.0 mm
22:33 -0.3 °C -0.6 °C 1031.0 hPa NE 4.0 km/h 5.0 km/h 98 % 0.0 mm
22:37 -0.3 °C -0.6 °C 1032.1 hPa ENE 4.0 km/h 5.0 km/h 98 % 0.0 mm
22:40 -0.3 °C -0.6 °C 1032.1 hPa ENE 4.3 km/h 5.5 km/h 98 % 0.0 mm
22:45 -0.2 °C -0.5 °C 1032.1 hPa NE 4.0 km/h 5.5 km/h 98 % 0.0 mm
22:51 -0.1 °C -0.4 °C 1032.1 hPa East 4.0 km/h 5.8 km/h 98 % 0.0 mm
22:56 -0.1 °C -0.4 °C 1031.0 hPa NE 5.0 km/h 5.8 km/h 98 % 0.0 mm
23:00 0.0 °C -0.3 °C 1031.0 hPa ENE 6.4 km/h 6.9 km/h 98 % 0.0 mm
23:06 0.0 °C -0.3 °C 1031.0 hPa ENE 6.9 km/h 6.9 km/h 98 % 0.0 mm
23:11 0.0 °C -0.3 °C 1031.0 hPa NE 5.0 km/h 6.9 km/h 98 % 0.0 mm
23:16 0.0 °C -0.3 °C 1031.0 hPa NE 4.7 km/h 5.8 km/h 98 % 0.0 mm
23:21 -0.1 °C -0.4 °C 1031.0 hPa NE 5.0 km/h 5.5 km/h 98 % 0.0 mm
23:26 -0.1 °C -0.4 °C 1031.0 hPa NE 5.5 km/h 5.8 km/h 98 % 0.0 mm
23:31 -0.1 °C -0.4 °C 1031.0 hPa ENE 4.7 km/h 5.8 km/h 98 % 0.0 mm
23:36 -0.1 °C -0.4 °C 1031.0 hPa ENE 4.7 km/h 5.8 km/h 98 % 0.0 mm
23:41 -0.2 °C -0.5 °C 1030.0 hPa NE 4.7 km/h 5.8 km/h 98 % 0.0 mm
23:46 -0.3 °C -0.6 °C 1030.0 hPa ENE 4.3 km/h 5.8 km/h 98 % 0.0 mm
23:51 -0.4 °C -0.7 °C 1030.0 hPa ENE 4.3 km/h 6.1 km/h 98 % 0.0 mm
23:56 -0.5 °C -0.8 °C 1031.0 hPa ENE 4.3 km/h 6.1 km/h 98 % 0.0 mm
Le Gheer Warneton
Courtoisie de Weather Underground - 2.25 mb

Mise a jour : 16-12-17 12:09:11
Généré par Cumulus 1.9.4 (1099)